Time;durP1;ratioP1;P1;durP2;ratioP2;P2;SDS_P1;SDS_P2;PMS_P1;PMS_P2;Temp;Humidity;BMP_temperature;BMP_pressure;BME280_temperature;BME280_humidity;BME280_pressure;Samples;Min_cycle;Max_cycle;Signal;HPM_P1;HPM_P2
2022/05/30 00:02:10;;;;;;;1.35;0.90;;;;;;;12.06;79.80;99248.06;6270875;28;20059;-72
2022/05/30 00:05:11;;;;;;;1.35;0.93;;;;;;;11.90;81.17;99237.19;6270637;28;20049;-73
2022/05/30 00:08:14;;;;;;;1.90;0.97;;;;;;;11.95;81.19;99242.06;6272065;28;20498;-73
2022/05/30 00:11:15;;;;;;;;;;;;;;;11.79;83.31;99243.22;6271244;28;20282;-74
2022/05/30 00:14:16;;;;;;;1.90;1.00;;;;;;;11.65;85.12;99243.50;6272225;28;19921;-74
2022/05/30 00:17:16;;;;;;;1.75;0.88;;;;;;;11.61;86.45;99239.44;6273475;28;20041;-74
2022/05/30 00:20:17;;;;;;;2.65;1.10;;;;;;;11.46;87.75;99250.16;6295994;28;20119;-74
2022/05/30 00:23:18;;;;;;;4.15;0.93;;;;;;;11.41;89.09;99254.09;6294669;28;20050;-75
2022/05/30 00:26:19;;;;;;;3.40;1.33;;;;;;;11.18;91.62;99248.84;6295617;28;20478;-75
2022/05/30 00:29:20;;;;;;;5.35;1.63;;;;;;;11.17;92.88;99256.78;6279095;28;20060;-74
2022/05/30 00:32:21;;;;;;;1.98;1.33;;;;;;;11.16;94.25;99261.19;6295832;28;20052;-74
2022/05/30 00:35:22;;;;;;;2.50;1.25;;;;;;;11.13;94.56;99256.19;6312440;28;20060;-74
2022/05/30 00:38:23;;;;;;;2.85;1.35;;;;;;;11.06;95.89;99252.38;6295543;28;20048;-74
2022/05/30 00:41:26;;;;;;;3.72;1.40;;;;;;;10.94;97.55;99261.13;6286548;28;20048;-74
2022/05/30 00:44:27;;;;;;;2.13;1.42;;;;;;;10.79;99.83;99263.09;6259014;28;20353;-74
2022/05/30 00:47:27;;;;;;;3.78;1.95;;;;;;;10.81;100.00;99264.66;6276657;28;20049;-75
2022/05/30 00:50:28;;;;;;;3.03;1.33;;;;;;;10.85;100.00;99267.84;6275366;28;20080;-74
2022/05/30 00:53:31;;;;;;;5.72;1.70;;;;;;;10.85;100.00;99258.28;6276496;28;20041;-74
2022/05/30 00:56:39;;;;;;;4.35;1.90;;;;;;;10.88;100.00;99255.41;6275490;28;20044;-74
2022/05/30 00:59:40;;;;;;;2.38;1.40;;;;;;;10.61;100.00;99252.25;6276410;28;20041;-74
2022/05/30 01:02:41;;;;;;;6.50;2.03;;;;;;;10.58;100.00;99244.66;6275243;28;20152;-72
2022/05/30 01:09:07;;;;;;;3.80;1.70;;;;;;;10.38;100.00;99246.97;6275757;28;20052;-72
2022/05/30 01:12:11;;;;;;;2.90;1.77;;;;;;;10.25;100.00;99239.19;6274676;28;20051;-72
2022/05/30 01:15:14;;;;;;;4.28;1.77;;;;;;;10.48;100.00;99245.34;6291004;28;20041;-72
2022/05/30 01:18:29;;;;;;;3.00;1.88;;;;;;;10.35;100.00;99252.38;6274384;28;20555;-72
2022/05/30 01:21:52;;;;;;;3.08;1.65;;;;;;;10.37;100.00;99247.88;6275492;28;20037;-72
2022/05/30 01:25:00;;;;;;;5.50;1.90;;;;;;;10.23;100.00;99251.50;6275568;28;20049;-72
2022/05/30 01:28:32;;;;;;;3.72;1.67;;;;;;;9.97;100.00;99245.53;6275366;28;20072;-72
2022/05/30 01:31:32;;;;;;;2.53;1.75;;;;;;;9.97;100.00;99245.53;6274021;28;20056;-72
2022/05/30 01:34:34;;;;;;;2.60;1.73;;;;;;;10.02;100.00;99245.19;6290608;28;20128;-73
2022/05/30 01:37:35;;;;;;;2.88;2.00;;;;;;;9.82;100.00;99244.84;6281743;28;20044;-72
2022/05/30 01:40:36;;;;;;;4.27;2.33;;;;;;;9.75;100.00;99242.78;6290542;28;20048;-72
2022/05/30 01:43:37;;;;;;;4.15;2.20;;;;;;;9.89;100.00;99235.66;6290603;28;20128;-73
2022/05/30 01:46:38;;;;;;;7.32;2.20;;;;;;;9.78;100.00;99251.22;6290446;28;20041;-72
2022/05/30 01:49:38;;;;;;;6.50;2.65;;;;;;;9.57;100.00;99250.94;6274995;28;20037;-72
2022/05/30 01:52:39;;;;;;;3.80;2.72;;;;;;;9.57;100.00;99253.53;6274402;28;20083;-72
2022/05/30 01:55:40;;;;;;;6.28;2.67;;;;;;;9.52;100.00;99253.03;6273486;28;20052;-72
2022/05/30 01:58:41;;;;;;;4.28;2.67;;;;;;;9.38;100.00;99250.56;6273616;28;20094;-72
2022/05/30 02:01:44;;;;;;;5.78;3.08;;;;;;;9.43;100.00;99238.88;6273407;28;20049;-72
2022/05/30 02:04:45;;;;;;;3.55;2.63;;;;;;;9.42;100.00;99252.00;6273387;28;20040;-72
2022/05/30 02:07:46;;;;;;;6.43;3.20;;;;;;;9.39;100.00;99249.59;6273802;28;20040;-72
2022/05/30 02:10:48;;;;;;;5.32;3.45;;;;;;;9.32;100.00;99248.38;6273308;28;20060;-73
2022/05/30 02:13:49;;;;;;;8.85;4.20;;;;;;;9.42;100.00;99236.38;6289469;28;20049;-73
2022/05/30 02:17:04;;;;;;;5.63;3.33;;;;;;;9.36;100.00;99255.03;6274142;28;20041;-73
2022/05/30 02:20:06;;;;;;;7.78;3.78;;;;;;;9.37;100.00;99256.69;6274268;28;20098;-73
2022/05/30 02:23:07;;;;;;;9.18;3.60;;;;;;;9.32;100.00;99261.38;6289585;28;20045;-72
2022/05/30 02:26:08;;;;;;;7.88;4.00;;;;;;;9.22;100.00;99259.41;6272800;28;20072;-73
2022/05/30 02:29:08;;;;;;;5.28;3.33;;;;;;;9.16;100.00;99264.19;6272776;28;20045;-73
2022/05/30 02:32:10;;;;;;;7.38;3.70;;;;;;;9.19;100.00;99264.81;6256085;28;20119;-73
2022/05/30 02:38:30;;;;;;;4.00;3.22;;;;;;;9.11;100.00;99282.72;6273794;28;20086;-72
2022/05/30 02:41:31;;;;;;;9.57;3.42;;;;;;;9.10;100.00;99285.41;6273524;28;20045;-73
2022/05/30 02:44:32;;;;;;;6.18;3.38;;;;;;;9.03;100.00;99301.44;6288601;28;20052;-73
2022/05/30 02:47:33;;;;;;;5.15;3.22;;;;;;;9.11;100.00;99300.94;6288883;28;20052;-73
2022/05/30 02:50:33;;;;;;;9.77;3.33;;;;;;;9.17;100.00;99295.31;6272249;28;20120;-73
2022/05/30 02:53:34;;;;;;;7.32;3.15;;;;;;;8.93;100.00;99289.16;6273495;28;20080;-72
2022/05/30 02:56:35;;;;;;;7.68;3.70;;;;;;;8.98;100.00;99293.13;6271991;28;20041;-73
2022/05/30 02:59:36;;;;;;;8.75;3.67;;;;;;;8.98;100.00;99306.13;6273229;28;20056;-73
2022/05/30 03:02:37;;;;;;;5.82;3.42;;;;;;;9.12;100.00;99314.78;6272357;28;20124;-72
2022/05/30 03:05:38;;;;;;;5.30;3.30;;;;;;;9.11;100.00;99313.94;6271901;28;20412;-72
2022/05/30 03:08:39;;;;;;;5.50;3.58;;;;;;;8.99;100.00;99319.97;6273100;28;20051;-72
2022/05/30 03:11:40;;;;;;;7.15;3.67;;;;;;;9.06;100.00;99316.03;6272897;28;20048;-72
2022/05/30 03:14:41;;;;;;;8.55;4.15;;;;;;;9.07;100.00;99320.28;6272912;28;20376;-72
2022/05/30 03:17:42;;;;;;;6.25;3.67;;;;;;;9.12;100.00;99318.25;6271746;28;20384;-72
2022/05/30 03:20:43;;;;;;;10.30;3.85;;;;;;;9.25;100.00;99321.66;6254932;28;20047;-72
2022/05/30 03:23:43;;;;;;;6.72;3.70;;;;;;;9.26;100.00;99327.69;6271664;28;20041;-72
2022/05/30 03:26:44;;;;;;;7.63;4.07;;;;;;;9.35;100.00;99321.91;6271224;28;20037;-73
2022/05/30 03:29:45;;;;;;;4.55;3.47;;;;;;;9.38;100.00;99316.47;6272585;28;20041;-73
2022/05/30 03:32:45;;;;;;;9.38;3.83;;;;;;;9.43;100.00;99319.59;6271281;28;20112;-72
2022/05/30 03:35:46;;;;;;;5.72;3.85;;;;;;;9.45;100.00;99327.28;6304725;28;20045;-73
2022/05/30 03:38:47;;;;;;;13.02;4.07;;;;;;;9.48;100.00;99340.13;6272438;28;20128;-72
2022/05/30 03:41:48;;;;;;;20.10;3.75;;;;;;;9.73;100.00;99348.88;6271191;28;20049;-73
2022/05/30 03:44:49;;;;;;;6.65;3.40;;;;;;;9.74;100.00;99366.16;6271073;28;20069;-72
2022/05/30 03:47:50;;;;;;;7.38;3.30;;;;;;;9.72;100.00;99358.47;6272294;28;20492;-72
2022/05/30 03:50:50;;;;;;;5.55;3.00;;;;;;;9.92;100.00;99379.69;6271054;28;20045;-72
2022/05/30 03:53:52;;;;;;;5.63;2.85;;;;;;;10.02;100.00;99384.16;6272087;28;20055;-72
2022/05/30 03:56:53;;;;;;;8.15;3.15;;;;;;;10.15;100.00;99383.31;6254334;28;20041;-72
2022/05/30 03:59:53;;;;;;;5.32;2.85;;;;;;;10.24;100.00;99390.50;6271918;28;20049;-73
2022/05/30 04:02:54;;;;;;;4.18;2.83;;;;;;;10.41;100.00;99397.16;6271071;28;20091;-72
2022/05/30 04:05:55;;;;;;;8.52;3.58;;;;;;;10.54;100.00;99404.94;6271470;28;20041;-73
2022/05/30 04:08:56;;;;;;;7.22;3.17;;;;;;;10.68;100.00;99405.59;6270337;28;20543;-73
2022/05/30 04:11:56;;;;;;;3.97;2.50;;;;;;;10.81;100.00;99418.63;6254161;28;20041;-73
2022/05/30 04:15:00;;;;;;;4.10;2.63;;;;;;;10.83;100.00;99421.09;6276237;28;20060;-73
2022/05/30 04:18:00;;;;;;;5.63;2.75;;;;;;;10.90;100.00;99427.56;6279937;28;20055;-73
2022/05/30 04:21:02;;;;;;;5.82;2.63;;;;;;;11.07;100.00;99424.56;6262219;28;20042;-73
2022/05/30 04:24:03;;;;;;;6.75;3.13;;;;;;;11.15;100.00;99426.59;6279901;28;20415;-73
2022/05/30 04:27:05;;;;;;;4.03;2.72;;;;;;;11.20;100.00;99432.34;6278694;28;20052;-73
2022/05/30 04:30:08;;;;;;;9.70;3.78;;;;;;;11.28;100.00;99448.28;6295664;28;20044;-74
2022/05/30 04:33:08;;;;;;;14.20;4.20;;;;;;;11.22;100.00;99440.03;6280221;28;20045;-74
2022/05/30 04:36:12;;;;;;;5.70;3.20;;;;;;;11.29;100.00;99447.31;6278977;28;20041;-74
2022/05/30 04:39:14;;;;;;;3.83;2.45;;;;;;;11.36;100.00;99449.47;6278956;28;20095;-74
2022/05/30 04:42:15;;;;;;;4.85;2.05;;;;;;;11.41;100.00;99448.19;6279058;28;20131;-74
2022/05/30 04:45:16;;;;;;;4.70;2.60;;;;;;;11.47;100.00;99446.91;6279278;28;20051;-73
2022/05/30 04:48:16;;;;;;;3.08;2.05;;;;;;;11.56;98.65;99443.59;6303864;28;20075;-74
2022/05/30 04:51:17;;;;;;;3.08;2.42;;;;;;;11.65;100.00;99445.56;6253886;28;20059;-74
2022/05/30 04:54:19;;;;;;;4.88;2.42;;;;;;;11.75;97.51;99443.06;6303718;28;20045;-74
2022/05/30 04:57:20;;;;;;;6.13;2.80;;;;;;;11.86;96.36;99445.69;6303663;28;20072;-74
2022/05/30 05:00:25;;;;;;;11.43;2.20;;;;;;;11.99;96.89;99455.25;6270441;28;20037;-74
2022/05/30 05:03:27;;;;;;;5.47;2.15;;;;;;;12.14;94.48;99468.94;6304864;28;20052;-74
2022/05/30 05:06:28;;;;;;;;;;;;;;;11.91;87.37;99465.47;6304186;28;20055;-73
2022/05/30 05:09:55;;;;;;;2.42;1.55;;;;;;;12.15;87.69;99468.81;6296395;28;19921;-74
2022/05/30 05:12:55;;;;;;;5.38;1.60;;;;;;;12.15;86.15;99479.28;6278438;28;20120;-74
2022/05/30 05:15:57;;;;;;;3.17;1.65;;;;;;;12.32;84.76;99453.59;6279826;28;20491;-74
2022/05/30 05:18:58;;;;;;;2.58;1.45;;;;;;;12.48;86.27;99459.31;6295247;28;20060;-74
2022/05/30 05:21:59;;;;;;;2.03;1.40;;;;;;;12.69;84.08;99464.63;6296487;28;20056;-74
2022/05/30 05:25:00;;;;;;;2.60;1.60;;;;;;;12.79;82.82;99465.56;6293572;28;20053;-74
2022/05/30 05:28:01;;;;;;;2.85;1.80;;;;;;;13.00;82.82;99460.41;6275716;28;20072;-74
2022/05/30 05:31:02;;;;;;;2.38;1.45;;;;;;;13.03;79.13;99465.41;6280141;28;20459;-74
2022/05/30 05:34:06;;;;;;;4.35;1.27;;;;;;;13.13;77.50;99460.22;6274110;28;20036;-75
2022/05/30 05:37:07;;;;;;;4.55;1.40;;;;;;;13.16;77.46;99462.63;6274177;28;20041;-75
2022/05/30 05:40:08;;;;;;;2.35;1.42;;;;;;;13.28;76.72;99461.63;6277167;28;20089;-75
2022/05/30 05:43:09;;;;;;;4.90;1.85;;;;;;;13.46;79.42;99461.91;6299366;28;20086;-74
2022/05/30 05:46:15;;;;;;;8.35;1.42;;;;;;;13.67;76.00;99461.94;6286784;28;20395;-74
2022/05/30 05:49:15;;;;;;;1.77;1.20;;;;;;;13.85;73.13;99466.59;6275068;28;20073;-74
2022/05/30 05:52:16;;;;;;;5.20;0.95;;;;;;;14.23;71.85;99468.59;6273839;28;20043;-74
2022/05/30 05:55:17;;;;;;;6.68;1.40;;;;;;;14.71;69.23;99475.00;6273811;28;20043;-75
2022/05/30 05:58:18;;;;;;;3.25;1.38;;;;;;;14.95;66.87;99471.19;6273714;28;20407;-74
2022/05/30 06:01:22;;;;;;;6.57;1.30;;;;;;;14.92;66.00;99477.53;6275594;28;20045;-74
2022/05/30 06:04:23;;;;;;;4.93;1.35;;;;;;;14.72;65.50;99489.78;6274287;28;20087;-74
2022/05/30 06:07:24;;;;;;;3.95;0.88;;;;;;;14.77;64.20;99494.66;6299464;28;20093;-74
2022/05/30 06:10:25;;;;;;;3.90;0.88;;;;;;;14.86;63.97;99493.84;6279287;28;20045;-74
2022/05/30 06:13:27;;;;;;;7.10;1.30;;;;;;;15.02;63.15;99503.84;6273920;28;20125;-74
2022/05/30 06:16:30;;;;;;;5.43;1.00;;;;;;;15.16;63.54;99513.13;6272205;28;20045;-74
2022/05/30 06:19:31;;;;;;;4.63;0.80;;;;;;;15.30;61.82;99504.84;6255585;28;20048;-74
2022/05/30 06:22:32;;;;;;;6.65;1.40;;;;;;;15.40;60.65;99507.47;6273215;28;20048;-74
2022/05/30 06:25:33;;;;;;;9.10;1.02;;;;;;;15.50;61.67;99511.78;6271918;28;20488;-74
2022/05/30 06:28:36;;;;;;;2.15;0.93;;;;;;;15.58;61.15;99510.25;6272819;28;20476;-74
2022/05/30 06:31:37;;;;;;;6.72;0.70;;;;;;;15.66;61.78;99513.00;6254996;28;20091;-74
2022/05/30 06:34:38;;;;;;;1.70;1.20;;;;;;;15.70;62.54;99502.06;6271636;28;20049;-74
2022/05/30 06:37:39;;;;;;;2.70;0.90;;;;;;;15.89;60.71;99518.81;6271567;28;20503;-74
2022/05/30 06:40:42;;;;;;;2.03;0.98;;;;;;;16.08;61.60;99520.59;6271475;28;20040;-74
2022/05/30 06:43:44;;;;;;;2.05;1.00;;;;;;;16.09;58.13;99525.72;6272701;28;20127;-74
2022/05/30 06:46:45;;;;;;;3.25;1.33;;;;;;;16.26;58.26;99524.13;6271539;28;20117;-74
2022/05/30 06:49:46;;;;;;;3.55;1.05;;;;;;;16.39;57.47;99529.13;6272494;28;20041;-75
2022/05/30 06:52:47;;;;;;;5.17;1.03;;;;;;;16.41;57.11;99529.81;6272673;28;20123;-76
2022/05/30 06:55:50;;;;;;;4.40;1.10;;;;;;;16.69;57.55;99540.34;6271974;28;20089;-75
2022/05/30 06:58:52;;;;;;;5.57;1.20;;;;;;;16.78;55.78;99549.19;6295863;28;20064;-74
2022/05/30 07:01:53;;;;;;;6.30;1.17;;;;;;;17.18;57.63;99532.22;6297543;28;20143;-75
2022/05/30 07:04:54;;;;;;;4.70;1.20;;;;;;;17.02;56.55;99540.78;6286921;28;20086;-75
2022/05/30 07:07:58;;;;;;;1.42;1.00;;;;;;;17.14;55.68;99542.22;6285922;28;20047;-74
2022/05/30 07:10:58;;;;;;;2.97;1.00;;;;;;;17.12;56.54;99549.47;6272262;28;20052;-74
2022/05/30 07:13:59;;;;;;;3.78;2.00;;;;;;;16.78;56.09;99557.94;6271776;28;20559;-75
2022/05/30 07:17:00;;;;;;;2.92;0.95;;;;;;;16.98;56.13;99563.13;6254036;28;20041;-74
2022/05/30 07:20:01;;;;;;;3.53;1.27;;;;;;;17.21;54.72;99559.09;6270522;28;20044;-75
2022/05/30 07:23:03;;;;;;;3.47;1.00;;;;;;;17.18;53.34;99563.88;6271692;28;20051;-75
2022/05/30 07:26:10;;;;;;;5.90;1.15;;;;;;;17.55;52.84;99552.38;6287192;28;20044;-74
2022/05/30 07:29:11;;;;;;;1.33;0.75;;;;;;;17.59;49.84;99551.91;6296302;28;20041;-75
2022/05/30 07:32:12;;;;;;;2.55;0.50;;;;;;;18.20;48.45;99555.56;6290238;28;20444;-75
2022/05/30 07:35:13;;;;;;;10.77;0.77;;;;;;;18.19;47.50;99556.53;6279548;28;20052;-73
2022/05/30 07:38:13;;;;;;;2.85;1.10;;;;;;;18.19;49.12;99559.19;6278292;28;20097;-73
2022/05/30 07:41:14;;;;;;;4.82;0.75;;;;;;;18.11;49.15;99559.13;6270161;28;20047;-73
2022/05/30 07:44:15;;;;;;;2.27;0.80;;;;;;;18.48;47.87;99566.78;6274269;28;20553;-73
2022/05/30 07:47:17;;;;;;;3.88;0.93;;;;;;;18.55;47.93;99560.88;6270131;28;20057;-74
2022/05/30 07:50:18;;;;;;;1.85;0.70;;;;;;;18.72;48.34;99573.19;6253221;28;20037;-76
2022/05/30 07:53:19;;;;;;;2.67;0.88;;;;;;;18.86;47.69;99567.34;6271161;28;20037;-74
2022/05/30 07:56:20;;;;;;;3.90;0.90;;;;;;;18.70;46.48;99560.13;6269899;28;20445;-73
2022/05/30 07:59:21;;;;;;;1.27;0.82;;;;;;;18.79;44.98;99561.03;6269682;28;20554;-73
2022/05/30 08:02:21;;;;;;;5.93;0.90;;;;;;;18.85;46.56;99563.03;6272472;28;20385;-73
2022/05/30 08:05:22;;;;;;;6.43;1.15;;;;;;;19.24;45.89;99561.69;6270943;28;20037;-75
2022/05/30 08:08:23;;;;;;;3.43;1.00;;;;;;;19.14;44.63;99559.16;6284678;28;20167;-75
2022/05/30 08:11:24;;;;;;;3.33;0.82;;;;;;;19.62;44.40;99578.81;6294401;28;20064;-75
2022/05/30 08:14:25;;;;;;;1.87;0.80;;;;;;;20.07;42.73;99566.91;6295737;28;20784;-74
2022/05/30 08:17:26;;;;;;;3.87;0.97;;;;;;;19.84;42.76;99572.03;6294597;28;20098;-76
2022/05/30 08:20:32;;;;;;;6.65;0.90;;;;;;;20.33;42.68;99582.59;6269589;28;20049;-75
2022/05/30 08:23:33;;;;;;;2.55;0.90;;;;;;;20.50;41.12;99577.28;6269601;28;20049;-73
2022/05/30 08:26:34;;;;;;;3.73;1.17;;;;;;;20.54;42.80;99575.94;6269584;28;20083;-73
2022/05/30 08:29:35;;;;;;;4.82;0.98;;;;;;;20.51;43.03;99582.41;6270564;28;20037;-73
2022/05/30 08:32:38;;;;;;;3.23;0.73;;;;;;;20.35;40.13;99577.16;6269408;28;20041;-75
2022/05/30 08:35:40;;;;;;;6.88;0.90;;;;;;;20.06;40.05;99586.44;6270626;28;20036;-75
2022/05/30 08:38:43;;;;;;;2.63;0.73;;;;;;;20.02;41.84;99590.41;6286089;28;20567;-75
2022/05/30 08:41:47;;;;;;;2.50;0.90;;;;;;;20.53;40.44;99579.59;6264233;28;20045;-75
2022/05/30 08:44:47;;;;;;;6.65;1.27;;;;;;;20.80;39.12;99591.66;6302764;28;20057;-73
2022/05/30 08:47:54;;;;;;;9.27;0.80;;;;;;;20.91;40.52;99577.19;6270416;28;20402;-74
2022/05/30 08:51:21;;;;;;;2.33;0.80;;;;;;;20.38;38.09;99581.28;6270393;28;20045;-74
2022/05/30 08:54:31;;;;;;;5.15;1.10;;;;;;;21.30;38.52;99576.34;6273956;28;20040;-73
2022/05/30 08:57:35;;;;;;;4.50;1.25;;;;;;;20.43;36.88;99590.38;6275995;28;20052;-74
2022/05/30 09:00:44;;;;;;;2.75;1.17;;;;;;;21.09;36.38;99592.84;6277617;28;20032;-74
2022/05/30 09:04:13;;;;;;;5.55;2.92;;;;;;;21.68;34.90;99582.59;6287990;28;20067;-74
2022/05/30 09:07:16;;;;;;;4.50;2.22;;;;;;;22.02;34.96;99570.69;6300149;28;20048;-75
2022/05/30 09:10:53;;;;;;;6.90;1.10;;;;;;;20.43;36.87;99574.47;6279876;28;20170;-75
2022/05/30 09:13:57;;;;;;;3.13;0.95;;;;;;;21.84;36.54;99580.81;6258828;28;20045;-75
2022/05/30 09:17:01;;;;;;;2.90;0.90;;;;;;;21.09;35.79;99587.56;6275349;28;20099;-75
2022/05/30 09:20:06;;;;;;;2.22;1.13;;;;;;;21.46;39.19;99573.59;6274544;28;20467;-76
2022/05/30 09:23:09;;;;;;;5.22;1.20;;;;;;;21.96;35.71;99594.50;6289853;28;20048;-75
2022/05/30 09:26:18;;;;;;;3.30;0.85;;;;;;;22.32;35.45;99581.41;6299425;28;20028;-75
2022/05/30 09:29:23;;;;;;;2.13;1.15;;;;;;;22.25;37.17;99583.97;6298125;28;20033;-75
2022/05/30 09:32:56;;;;;;;2.55;0.80;;;;;;;22.52;36.69;99577.19;6297966;28;20513;-75
2022/05/30 09:36:18;;;;;;;4.25;0.77;;;;;;;22.29;36.96;99574.63;6295102;28;20062;-75
2022/05/30 09:39:18;;;;;;;;;;;;;;;22.38;36.44;99583.31;6298300;28;20047;-75
2022/05/30 09:42:31;;;;;;;2.50;1.20;;;;;;;22.89;35.23;99582.63;6298961;28;20378;-75
2022/05/30 09:45:33;;;;;;;5.07;1.08;;;;;;;23.13;34.55;99585.00;6297744;28;20474;-75
2022/05/30 09:48:36;;;;;;;4.07;0.80;;;;;;;23.66;35.38;99584.75;6297634;28;20052;-75
2022/05/30 09:51:43;;;;;;;7.93;1.02;;;;;;;22.94;32.37;99577.59;6297391;28;20047;-75
2022/05/30 09:54:43;;;;;;;6.45;1.13;;;;;;;23.05;32.76;99592.28;6298654;28;20131;-76
2022/05/30 09:57:44;;;;;;;3.23;0.80;;;;;;;23.13;33.85;99600.97;6294042;28;20039;-76
2022/05/30 10:00:54;;;;;;;6.80;1.37;;;;;;;23.58;34.61;99613.34;6285766;28;20068;-75
2022/05/30 10:03:59;;;;;;;1.58;0.77;;;;;;;23.66;35.06;99595.41;6298710;28;20044;-76
2022/05/30 10:07:16;;;;;;;2.60;1.00;;;;;;;23.78;34.55;99601.06;6281578;28;20471;-76
2022/05/30 10:10:30;;;;;;;2.45;0.82;;;;;;;24.31;32.11;99592.69;6298077;28;20048;-73
2022/05/30 10:13:35;;;;;;;1.33;0.65;;;;;;;24.33;33.01;99601.34;6279843;28;20396;-74
2022/05/30 10:16:36;;;;;;;2.75;0.90;;;;;;;23.94;32.21;99592.00;6296909;28;20044;-75
2022/05/30 10:19:41;;;;;;;4.60;1.00;;;;;;;23.53;33.61;99601.44;6296749;28;20106;-75
2022/05/30 10:30:03;;;;;;;1.25;0.85;;;;;;;23.45;33.82;99593.56;6297827;28;20151;-75
2022/05/30 10:33:24;;;;;;;1.60;0.85;;;;;;;23.99;32.63;99594.94;6286712;28;20110;-75
2022/05/30 10:36:49;;;;;;;3.08;0.95;;;;;;;24.68;33.61;99607.53;6272878;28;20041;-75
2022/05/30 10:40:12;;;;;;;5.63;1.63;;;;;;;24.02;32.11;99602.53;6271381;28;20512;-75
2022/05/30 10:43:41;;;;;;;1.73;0.73;;;;;;;23.24;33.39;99598.84;6291891;28;20068;-76
2022/05/30 10:46:47;;;;;;;2.95;1.33;;;;;;;23.38;33.01;99597.97;6296222;28;20040;-76
2022/05/30 10:50:00;;;;;;;3.47;0.88;;;;;;;22.87;34.42;99601.41;6297319;28;20051;-75
2022/05/30 10:53:05;;;;;;;2.28;1.02;;;;;;;23.42;34.34;99596.59;6295858;28;20051;-74
2022/05/30 10:56:17;;;;;;;2.70;0.90;;;;;;;23.21;32.75;99601.88;6297217;28;20491;-74
2022/05/30 10:59:36;;;;;;;;;;;;;;;23.73;34.01;99600.78;6276059;28;20072;-75
2022/05/30 11:03:02;;;;;;;3.70;0.77;;;;;;;23.42;33.30;99607.22;6272241;28;19966;-74
2022/05/30 11:06:26;;;;;;;2.25;0.73;;;;;;;22.86;34.39;99607.75;6272119;28;20048;-74
2022/05/30 11:10:05;;;;;;;4.35;0.80;;;;;;;22.66;35.42;99606.66;6271873;28;20103;-75
2022/05/30 11:13:44;;;;;;;2.97;1.60;;;;;;;22.69;35.54;99611.59;6270700;28;20041;-75
2022/05/30 11:17:05;;;;;;;3.65;1.00;;;;;;;22.62;34.93;99614.16;6270717;28;20510;-74
2022/05/30 11:20:11;;;;;;;1.23;0.70;;;;;;;22.43;34.63;99609.38;6271759;28;20033;-74
2022/05/30 11:23:12;;;;;;;1.85;0.70;;;;;;;22.22;34.56;99608.22;6271034;28;20049;-74
2022/05/30 11:26:51;;;;;;;2.05;0.90;;;;;;;22.06;35.36;99621.63;6271625;28;20041;-74
2022/05/30 11:30:16;;;;;;;4.10;0.90;;;;;;;21.73;35.30;99617.38;6270438;28;20128;-74
2022/05/30 11:33:29;;;;;;;3.88;1.00;;;;;;;21.47;36.03;99625.66;6286989;28;20047;-75
2022/05/30 11:36:45;;;;;;;2.72;0.70;;;;;;;21.54;36.54;99620.50;6296354;28;20517;-74
2022/05/30 11:39:58;;;;;;;3.50;0.98;;;;;;;21.76;35.56;99624.16;6294884;28;20139;-74
2022/05/30 11:43:10;;;;;;;1.75;0.77;;;;;;;21.83;36.50;99616.34;6296015;28;20044;-76
2022/05/30 11:46:54;;;;;;;4.97;1.00;;;;;;;22.20;36.75;99609.41;6296112;28;20040;-75
2022/05/30 11:50:20;;;;;;;6.30;0.68;;;;;;;21.86;37.74;99624.75;6284302;28;20483;-73
2022/05/30 11:53:54;;;;;;;1.23;0.90;;;;;;;21.73;40.52;99625.34;6296354;28;20048;-76
2022/05/30 11:57:46;;;;;;;3.30;1.15;;;;;;;21.73;38.67;99624.53;6296110;28;20048;-75
2022/05/30 12:00:50;;;;;;;1.20;0.68;;;;;;;21.72;37.37;99633.50;6278164;28;20057;-76
2022/05/30 12:04:22;;;;;;;2.72;0.90;;;;;;;21.72;38.13;99626.38;6288098;28;20103;-76
2022/05/30 12:07:25;;;;;;;4.40;0.90;;;;;;;21.79;39.36;99623.84;6282347;28;20040;-76
2022/05/30 12:10:51;;;;;;;1.45;0.90;;;;;;;21.56;39.36;99629.13;6269489;28;20053;-76
2022/05/30 12:14:18;;;;;;;3.97;0.90;;;;;;;21.48;38.58;99630.00;6270664;28;20033;-75
2022/05/30 12:17:31;;;;;;;3.58;1.05;;;;;;;21.42;40.33;99633.34;6275573;28;20044;-75
2022/05/30 12:24:35;;;;;;;2.47;1.00;;;;;;;21.21;45.50;99633.06;6295459;28;20132;-75
2022/05/30 12:27:37;;;;;;;4.32;1.10;;;;;;;21.11;44.27;99628.81;6270629;28;20048;-75
2022/05/30 12:30:46;;;;;;;2.08;1.00;;;;;;;21.26;42.93;99631.56;6270565;28;20495;-75
2022/05/30 12:33:48;;;;;;;3.53;1.13;;;;;;;21.14;45.15;99643.56;6270285;28;20049;-76
2022/05/30 12:36:49;;;;;;;3.13;0.85;;;;;;;20.97;44.46;99641.97;6275102;28;20048;-74
2022/05/30 12:39:51;;;;;;;6.20;1.23;;;;;;;20.88;44.59;99638.53;6275313;28;20407;-75
2022/05/30 12:43:04;;;;;;;7.03;1.02;;;;;;;20.54;44.44;99650.97;6274242;28;20053;-75
2022/05/30 12:46:12;;;;;;;3.30;1.10;;;;;;;20.54;44.20;99643.00;6273910;28;20057;-75
2022/05/30 12:49:33;;;;;;;2.35;1.20;;;;;;;20.51;44.12;99648.66;6307429;28;20053;-74
2022/05/30 12:52:51;;;;;;;1.23;0.80;;;;;;;20.42;45.93;99654.94;6273783;28;20048;-74
2022/05/30 12:55:54;;;;;;;2.30;0.95;;;;;;;20.47;47.06;99644.69;6275044;28;20065;-73
2022/05/30 12:59:24;;;;;;;7.68;1.17;;;;;;;20.43;46.15;99643.38;6273840;28;20079;-74
2022/05/30 13:03:04;;;;;;;4.20;1.00;;;;;;;20.35;48.00;99642.56;6257003;28;20052;-74
2022/05/30 13:06:29;;;;;;;1.05;0.90;;;;;;;20.53;47.29;99643.22;6266785;28;20446;-73
2022/05/30 13:09:48;;;;;;;2.42;1.27;;;;;;;20.49;49.47;99641.88;6274549;28;20065;-74
2022/05/30 13:13:08;;;;;;;1.02;0.93;;;;;;;20.30;48.51;99665.09;6306727;28;20124;-74
2022/05/30 13:16:30;;;;;;;2.75;1.10;;;;;;;20.00;50.44;99657.78;6274702;28;20045;-74
2022/05/30 13:19:31;;;;;;;20.55;3.13;;;;;;;19.97;53.07;99661.56;6274493;28;20037;-74
2022/05/30 13:22:35;;;;;;;32.30;3.50;;;;;;;19.73;53.87;99668.50;6306692;28;20117;-74
2022/05/30 13:25:36;;;;;;;3.65;1.08;;;;;;;19.95;51.55;99666.19;6273215;28;20041;-74
2022/05/30 13:28:42;;;;;;;4.93;1.30;;;;;;;19.92;51.53;99667.34;6273175;28;20037;-74
2022/05/30 13:31:48;;;;;;;1.85;1.08;;;;;;;19.86;50.22;99670.66;6274076;28;20048;-74
2022/05/30 13:34:54;;;;;;;2.05;1.10;;;;;;;20.00;48.95;99660.44;6272974;28;20037;-74
2022/05/30 13:37:59;;;;;;;2.00;1.10;;;;;;;20.40;46.61;99662.25;6274027;28;20044;-75
2022/05/30 13:41:15;;;;;;;2.92;1.10;;;;;;;20.59;48.98;99665.56;6272882;28;20543;-75
2022/05/30 13:44:21;;;;;;;3.83;1.40;;;;;;;20.34;47.34;99657.59;6273857;28;20052;-74
2022/05/30 13:47:22;;;;;;;2.25;1.00;;;;;;;20.32;47.16;99667.53;6273205;28;20048;-74
2022/05/30 13:50:25;;;;;;;2.70;1.30;;;;;;;20.29;46.32;99666.06;6273757;28;20044;-74
2022/05/30 13:53:32;;;;;;;4.28;1.98;;;;;;;20.21;46.45;99650.16;6272349;28;20041;-75
2022/05/30 13:56:37;;;;;;;6.18;1.17;;;;;;;20.18;45.79;99670.84;6273683;28;20484;-74
2022/05/30 13:59:54;;;;;;;5.90;1.20;;;;;;;20.23;46.37;99672.03;6305918;28;20037;-74
2022/05/30 14:02:55;;;;;;;3.60;1.30;;;;;;;20.23;47.20;99671.19;6289232;28;20068;-76
2022/05/30 14:05:55;;;;;;;3.07;1.27;;;;;;;20.21;49.17;99673.19;6273659;28;20056;-75
2022/05/30 14:08:56;;;;;;;4.17;1.40;;;;;;;20.26;51.22;99665.56;6273284;28;20274;-75
2022/05/30 14:12:01;;;;;;;5.37;1.20;;;;;;;20.25;50.23;99666.56;6272240;28;20123;-75
2022/05/30 14:15:25;;;;;;;6.65;1.30;;;;;;;20.09;50.71;99676.16;6273294;28;20076;-75
2022/05/30 14:18:47;;;;;;;6.03;1.23;;;;;;;20.10;51.14;99677.00;6278861;28;20086;-75
2022/05/30 14:21:54;;;;;;;4.45;1.05;;;;;;;20.00;50.25;99684.25;6280556;28;20128;-74
2022/05/30 14:25:03;;;;;;;6.30;1.13;;;;;;;19.95;49.29;99682.09;6279998;28;20415;-75
2022/05/30 14:28:12;;;;;;;5.25;2.00;;;;;;;19.72;51.28;99680.06;6278652;28;20114;-75
2022/05/30 14:31:16;;;;;;;3.13;1.63;;;;;;;19.58;52.22;99685.13;6295617;28;20059;-73
2022/05/30 14:34:17;;;;;;;3.47;1.15;;;;;;;19.43;52.62;99698.94;6263715;28;20048;-73
2022/05/30 14:38:00;;;;;;;4.93;1.40;;;;;;;19.41;51.44;99692.16;6255312;28;20091;-73
2022/05/30 14:41:01;;;;;;;;;;;;;;;19.58;51.14;99688.63;6273405;28;20385;-73
2022/05/30 14:44:03;;;;;;;6.57;1.30;;;;;;;19.80;50.53;99691.66;6271640;28;19920;-73
2022/05/30 14:47:08;;;;;;;5.32;1.25;;;;;;;19.88;49.25;99691.69;6271483;28;20095;-73
2022/05/30 14:50:13;;;;;;;5.18;1.40;;;;;;;19.75;49.06;99688.66;6313580;28;20049;-73
2022/05/30 14:53:19;;;;;;;4.35;1.20;;;;;;;19.80;48.55;99691.66;6295508;28;20052;-75
2022/05/30 14:56:26;;;;;;;5.22;1.20;;;;;;;20.07;50.24;99678.13;6272602;28;20063;-75